Anza Borrego Desert Research Center, California Weather observations

Data are for 10 minute period ending at time listed.
 Day   Time   Solar   Ave.   Ave.  Ave.  Vector  Max.   Baro.   Total    
  of    of     Rad.   Air    Rel.  Wind   Wind   Wind  Press.  Precip.   
Year   Day            Temp.  Hum.  Speed  Dir.   Gust                    
2015   (PST)  Kw/m2    F      %     mph   deg.    mph    mb.     in.     
-------------------------------------------------------------------------
  31   12:10   0.53   67.1    48    2.5   196     5.9   501.8    0.00 
  31   12:20   0.30   67.0    48    3.0   214     6.1   501.8    0.00 
  31   12:30   0.31   66.3    47    2.2   137     5.1   501.8    0.00 
  31   12:40   0.28   67.1    45    1.6   253     4.3   501.8    0.00 
  31   12:50   0.46   67.2    45    1.4    70     3.1   501.8    0.00 
  31   13:00   0.55   68.1    44    3.3   151     6.1   501.8    0.00 
  31   13:10   0.46   67.8    44    3.6   148     9.0   501.8    0.00 
  31   13:20   0.48   67.7    43    3.7   116     8.2   501.8    0.00 
  31   13:30   0.64   68.1    43    3.7   144     6.9   501.8    0.00 
  31   13:40   0.32   68.3    42    4.1   119     7.2   501.8    0.00 
  31   13:50   0.17   67.0    43    3.6    80     6.4   501.8    0.00 
  31   14:00   0.23   67.0    43    4.1   116     8.0   501.8    0.00 
  31   14:10   0.63   68.5    41    2.2   123     5.6   501.8    0.00 
  31   14:20   0.51   70.5    37    3.5    69     7.5   501.8    0.00 
  31   14:30   0.48   68.7    38    4.5    85     6.9   501.8    0.00 
  31   14:40   0.41   69.6    37    2.3    32     5.2   501.8    0.00 
  31   14:50   0.32   69.2    37    2.7    43    10.8   501.8    0.00 
  31   15:00   0.40   69.8    36    4.1     9     8.2   501.8    0.00 
  31   15:10   0.47   69.7    36    3.9    71    10.7   501.8    0.00 
  31   15:20   0.14   69.0    37    7.0    72    12.9   501.8    0.00 
  31   15:30   0.08   67.0    39    6.5    65    10.6   501.8    0.00 
  31   15:40   0.11   66.9    39    5.1    88     7.5   501.8    0.00 
  31   15:50   0.29   68.3    38    5.7    94     9.6   501.8    0.00 
  31   16:00   0.12   67.9    38    5.0    74     7.5   501.8    0.00 
  31   16:10   0.06   67.1    39    5.7    52    12.9   501.8    0.00 
  31   16:20   0.05   66.3    41    8.0    29    11.7   501.8    0.00 
  31   16:30   0.03   65.9    42    5.1    38     8.0   501.8    0.00 
  31   16:40   0.02   65.7    42    4.3    40     7.9   501.8    0.00 
  31   16:50   0.01   65.5    42    5.6    42     9.2   501.8    0.00 
  31   17:00   0.00   65.4    42    4.7    60     8.3   501.8    0.00 
  31   17:10   0.00   65.3    42    3.5    47     5.7   501.8    0.00 
  31   17:20   0.00   65.2    44    2.3    68     4.7   501.8    0.00 
  31   17:30   0.00   65.0    43    2.6    53     4.5   501.8    0.00 
  31   17:40   0.00   64.9    44    2.6    81     4.4   501.8    0.00 
  31   17:50   0.00   64.5    47    0.7   117     2.4   501.8    0.00 
  31   18:00   0.00   63.6    50    2.2   236     3.9   501.8    0.00 
  31   18:10   0.00   62.9    53    3.1   182     4.0   501.8    0.00 
  31   18:20   0.00   63.3    48    2.9   150     4.5   501.8    0.00 
  31   18:30   0.00   63.3    50    4.7   148     5.9   501.8    0.00 
  31   18:40   0.00   63.9    46    5.2   162     7.5   501.8    0.00 
  31   18:50   0.00   64.0    47    4.7   246     7.8   501.8    0.00 
  31   19:00   0.00   63.3    49    4.4   239     5.9   501.8    0.00 
  31   19:10   0.00   62.4    52    5.0   201     6.4   501.8    0.00 
  31   19:20   0.00   62.1    51    3.3   201     4.7   501.8    0.00 
  31   19:30   0.00   62.3    50    3.2   231     5.0   501.8    0.00 
  31   19:40   0.00   62.2    50    4.7   211     6.6   501.7    0.00 
  31   19:50   0.00   61.5    51    2.7   212     5.5   501.7    0.00 
  31   20:00   0.00   60.2    54    2.5   265     3.7   501.7    0.00 
  31   20:10   0.00   59.7    56    3.1   292     4.5   501.7    0.00 
  31   20:20   0.00   58.9    58    4.4   237     6.1   501.7    0.00 
  31   20:30   0.00   58.8    58    4.1   259     6.1   501.7    0.00 
  31   20:40   0.00   59.6    55    1.1    13     3.7   501.6    0.00 
  31   20:50   0.00   59.0    57    2.2   194     3.4   501.6    0.00 
  31   21:00   0.00   56.9    62    3.0   243     4.3   501.6    0.00 
  31   21:10   0.00   56.9    61    2.8   208     6.2   501.6    0.00 
  31   21:20   0.00   57.4    59    7.5   250     9.6   501.6    0.00 
  31   21:30   0.00   58.2    58    6.0   249     7.5   501.6    0.00 
  31   21:40   0.00   58.2    57    6.5   246     8.6   501.6    0.00 
  31   21:50   0.00   57.4    59    6.7   254     7.4   501.6    0.00 
  31   22:00   0.00   57.7    58    6.7   242     8.1   501.6    0.00 
  31   22:10   0.00   58.2    56    6.7   242     8.0   501.6    0.00 
  31   22:20   0.00   57.2    59    5.1   250     8.3   501.6    0.00 
  31   22:30   0.00   57.4    57    6.3   236     9.2   501.6    0.00 
  31   22:40   0.00   59.2    53    9.2   224    11.5   501.6    0.00 
  31   22:50   0.00   59.8    52   11.1   232    12.6   501.6    0.00 
  31   23:00   0.00   59.8    51    9.9   238    12.4   501.6    0.00 
  31   23:10   0.00   59.0    53    7.3   245    10.7   501.6    0.00 
  31   23:20   0.00   59.2    52    4.8   275     8.3   501.6    0.00 
  31   23:30   0.00   58.0    56    2.2    28     5.0   501.6    0.00 
  31   23:40   0.00   56.8    60    1.5   215     4.1   501.6    0.00 
  31   23:50   0.00   55.7    61    3.2   217     6.4   501.6    0.00 
  32    0:00   0.00   55.8    60    8.8   230     9.9   501.6    0.00 
  32    0:10   0.00   57.3    56    8.4   240    10.7   501.6    0.00 
  32    0:20   0.00   58.7    52    5.7   252     7.8   501.6    0.00 
  32    0:30   0.00   58.9    52    5.0   265     8.0   501.6    0.00 
  32    0:40   0.00   57.3    56    4.0   293     6.9   501.6    0.00 
  32    0:50   0.00   57.7    54    6.3   248     8.0   501.6    0.00 
  32    1:00   0.00   58.3    52    7.1   247     9.3   501.6    0.00 
  32    1:10   0.00   58.6    52    5.0   269     8.6   501.6    0.00 
  32    1:20   0.00   55.9    60    2.5   175     4.9   501.6    0.00 
  32    1:30   0.00   54.9    60    3.4   257     7.5   501.6    0.00 
  32    1:40   0.00   57.0    56    4.2   282     7.6   501.6    0.00 
  32    1:50   0.00   56.3    57    2.4    31     5.3   501.6    0.00 
  32    2:00   0.00   57.1    55    1.9   328     4.9   501.6    0.00 
  32    2:10   0.00   56.4    58    2.2    52     4.7   501.6    0.00 
  32    2:20   0.00   55.1    60    2.5   208     3.1   501.6    0.00 
  32    2:30   0.00   57.2    53    2.4   235     5.5   501.6    0.00 
  32    2:40   0.00   56.8    54    4.5   256     5.9   501.6    0.00 
  32    2:50   0.00   56.0    56    5.2   257     8.0   501.6    0.00 
  32    3:00   0.00   57.2    53    8.4   247    10.0   501.6    0.00 
  32    3:10   0.00   58.9    49    9.0   244    11.5   501.6    0.00 
  32    3:20   0.00   58.0    52    4.5   253    11.2   501.6    0.00 
  32    3:30   0.00   56.9    53    3.7   212     5.9   501.6    0.00 
  32    3:40   0.00   57.8    50    4.8   267     7.9   501.6    0.00 
  32    3:50   0.00   57.3    52    4.5   252     7.4   501.6    0.00 
  32    4:00   0.00   57.6    51    2.7   322     6.2   501.6    0.00 
  32    4:10   0.00   56.6    55    1.8   318     3.1   501.6    0.00 
  32    4:20   0.00   55.7    57    1.3   222     3.6   501.6    0.00 
  32    4:30   0.00   54.9    58    2.6   225     4.5   501.6    0.00 
  32    4:40   0.00   53.9    60    1.0   268     3.4   501.6    0.00 
  32    4:50   0.00   53.9    59    0.2   173     1.4   501.6    0.00 
  32    5:00   0.00   53.0    60    4.0   227     6.0   501.6    0.00 
  32    5:10   0.00   54.2    58    3.2   240     5.2   501.6    0.00 
  32    5:20   0.00   53.0    60    2.8   234     4.7   501.6    0.00 
  32    5:30   0.00   54.4    57    3.2   255     5.6   501.6    0.00 
  32    5:40   0.00   54.2    57    2.0   312     5.2   501.6    0.00 
  32    5:50   0.00   54.9    55    2.0   236     3.5   501.6    0.00 
  32    6:00   0.00   56.3    52    3.2   238     6.0   501.6    0.00 
  32    6:10   0.00   53.5    58    3.5   264     5.9   501.6    0.00 
  32    6:20   0.00   53.3    58    2.3   289     3.7   501.6    0.00 
  32    6:30   0.00   53.3    58    3.4   234     7.0   501.6    0.00 
  32    6:40   0.00   54.1    55    4.0   235     6.4   501.6    0.00 
  32    6:50   0.00   55.9    49    7.7   229    10.3   501.6    0.00 
  32    7:00   0.01   58.3    46    6.9   251    10.4   501.6    0.00 
  32    7:10   0.03   59.0    45    3.4   242     6.7   501.6    0.00 
  32    7:20   0.06   59.0    47    0.7     9     1.6   501.6    0.00 
  32    7:30   0.09   59.7    49    1.7   259     3.5   501.6    0.00 
  32    7:40   0.12   61.4    47    1.7    64     6.4   501.6    0.00 
  32    7:50   0.15   61.6    49    2.0   337     4.0   501.6    0.00 
  32    8:00   0.18   63.9    46    1.3   224     2.5   501.6    0.00 
  32    8:10   0.21   63.8    45    1.7   246     2.5   501.6    0.00 
  32    8:20   0.24   65.9    40    1.0   156     2.4   501.7    0.00 
  32    8:30   0.28   67.4    40    0.9   124     2.6   501.7    0.00 
  32    8:40   0.31   67.4    38    2.0   302     3.1   501.8    0.00 
  32    8:50   0.34   67.0    41    1.4     7     3.0   501.8    0.00 
  32    9:00   0.37   69.6    34    1.1   171     2.8   501.8    0.00 
  32    9:10   0.40   70.8    33    2.2   212     4.0   501.8    0.00 
  32    9:20   0.43   71.1    32    1.3   209     2.9   501.8    0.00 
  32    9:30   0.46   71.3    31    2.0   116     4.4   501.8    0.00 
  32    9:40   0.48   69.2    33    2.4   104     4.7   501.8    0.00 
  32    9:50   0.51   69.2    35    3.3    89     5.2   501.8    0.00 
  32   10:00   0.53   69.0    36    2.0    87     4.4   501.8    0.00 
  32   10:10   0.55   69.8    33    3.9    64     5.4   501.8    0.00 
  32   10:20   0.57   69.1    33    3.0    89     6.4   501.8    0.00 
  32   10:30   0.59   70.5    33    1.7    12     3.4   501.8    0.00 
  32   10:40   0.60   70.4    32    1.6    10     3.0   501.8    0.00 
  32   10:50   0.62   70.8    33    1.7    54     3.3   501.8    0.00 
  32   11:00   0.63   71.5    33    2.5    49     4.7   501.8    0.00 
  32   11:10   0.64   71.0    33    2.5    73     4.7   501.8    0.00 
  32   11:20   0.65   70.9    33    1.7    79     4.4   501.8    0.00 
  32   11:30   0.66   71.9    32    3.6   134     7.7   501.8    0.00 
  32   11:40   0.67   71.3    32    3.9   111     7.8   501.8    0.00 
  32   11:50   0.67   71.9    31    5.6   155     8.6   501.8    0.00 
  32   12:00   0.67   71.9    31    4.9   133     8.4   501.8    0.00 

Return to Anza Borrego Desert Research Center graphs page.


Western Regional Climate Center,wrcc@dri.edu